Time;durP1;ratioP1;P1;durP2;ratioP2;P2;SDS_P1;SDS_P2;PMS_P1;PMS_P2;Temp;Humidity;BMP_temperature;BMP_pressure;BME280_temperature;BME280_humidity;BME280_pressure;Samples;Min_cycle;Max_cycle;Signal;HPM_P1;HPM_P2
2023/01/23 00:00:30;;;;;;;17.58;8.07;;;4.10;91.80;;;;;;5075431;28;20033;-73
2023/01/23 00:02:56;;;;;;;23.13;9.02;;;4.10;91.80;;;;;;5058871;28;20025;-73
2023/01/23 00:05:22;;;;;;;20.27;8.48;;;4.10;91.80;;;;;;5075352;28;20056;-74
2023/01/23 00:07:48;;;;;;;22.88;9.13;;;4.10;91.80;;;;;;5042031;28;20048;-73
2023/01/23 00:10:13;;;;;;;18.73;7.97;;;4.10;91.90;;;;;;5058630;28;20051;-73
2023/01/23 00:12:44;;;;;;;18.83;8.10;;;4.20;91.90;;;;;;5058606;28;20029;-73
2023/01/23 00:15:11;;;;;;;21.20;8.90;;;4.10;91.80;;;;;;5092839;28;20032;-74
2023/01/23 00:17:40;;;;;;;23.48;9.18;;;4.10;91.80;;;;;;5092844;28;20024;-74
2023/01/23 00:20:08;;;;;;;22.02;9.13;;;4.20;91.80;;;;;;5092851;28;20020;-73
2023/01/23 00:22:34;;;;;;;20.25;8.65;;;4.20;91.80;;;;;;5075086;28;20024;-73
2023/01/23 00:25:00;;;;;;;24.05;8.82;;;4.20;91.80;;;;;;5075032;28;20051;-74
2023/01/23 00:27:25;;;;;;;18.92;8.02;;;4.20;91.90;;;;;;5058495;28;20032;-73
2023/01/23 00:29:52;;;;;;;21.10;8.88;;;4.10;91.80;;;;;;5092628;28;20041;-74
2023/01/23 00:32:17;;;;;;;22.95;8.82;;;4.20;91.80;;;;;;5092813;28;20027;-74
2023/01/23 00:34:44;;;;;;;19.75;7.93;;;4.20;91.90;;;;;;5061872;28;20037;-73
2023/01/23 00:37:09;;;;;;;18.92;7.70;;;4.20;91.90;;;;;;5096559;28;20020;-73
2023/01/23 00:39:35;;;;;;;16.77;7.97;;;4.20;91.90;;;;;;5078777;28;20055;-73
2023/01/23 00:42:01;;;;;;;20.33;8.20;;;4.20;91.90;;;;;;5062067;28;20036;-74
2023/01/23 00:44:26;;;;;;;18.75;8.02;;;4.20;91.90;;;;;;5096275;28;20024;-73
2023/01/23 00:46:52;;;;;;;18.98;7.88;;;4.20;91.80;;;;;;5078676;28;20028;-74
2023/01/23 00:49:18;;;;;;;19.73;8.35;;;4.20;91.80;;;;;;5078491;28;20028;-74
2023/01/23 00:51:45;;;;;;;21.25;8.55;;;4.20;91.80;;;;;;5096170;28;20027;-74
2023/01/23 00:54:10;;;;;;;22.95;7.93;;;4.20;91.80;;;;;;5061845;28;20037;-74
2023/01/23 00:56:36;;;;;;;21.30;8.75;;;4.20;91.80;;;;;;5061738;28;20029;-74
2023/01/23 00:59:02;;;;;;;24.80;8.98;;;4.20;91.90;;;;;;5078507;28;20045;-73
2023/01/23 01:01:30;;;;;;;18.73;8.15;;;4.20;91.90;;;;;;5078384;28;20028;-74
2023/01/23 01:03:56;;;;;;;18.23;7.68;;;4.20;91.90;;;;;;5095922;28;20021;-74
2023/01/23 01:06:22;;;;;;;20.30;8.40;;;4.20;91.90;;;;;;5061446;28;20029;-74
2023/01/23 01:08:47;;;;;;;19.48;8.57;;;4.20;91.90;;;;;;5095772;28;20025;-73
2023/01/23 01:11:13;;;;;;;19.65;8.00;;;4.20;91.90;;;;;;5045017;28;20043;-74
2023/01/23 01:13:39;;;;;;;21.08;8.32;;;4.20;91.90;;;;;;5061377;28;20036;-73
2023/01/23 01:16:06;;;;;;;21.95;8.93;;;4.20;91.90;;;;;;5077961;28;20027;-73
2023/01/23 01:18:32;;;;;;;18.20;8.18;;;4.20;91.90;;;;;;5078200;28;20024;-73
2023/01/23 01:20:58;;;;;;;18.85;8.13;;;4.20;91.90;;;;;;5077925;28;20021;-74
2023/01/23 01:23:24;;;;;;;21.95;8.23;;;4.20;91.90;;;;;;5077910;28;20021;-74
2023/01/23 01:25:50;;;;;;;21.67;8.10;;;4.20;91.90;;;;;;5095538;28;20024;-73
2023/01/23 01:28:15;;;;;;;22.17;8.25;;;4.20;91.90;;;;;;5077796;28;20063;-73
2023/01/23 01:30:41;;;;;;;22.17;8.30;;;4.20;91.90;;;;;;5077631;28;20056;-73
2023/01/23 01:33:07;;;;;;;19.17;8.75;;;4.20;91.90;;;;;;5077636;28;20032;-73
2023/01/23 01:35:33;;;;;;;22.25;7.75;;;4.10;91.90;;;;;;5095273;28;20021;-74
2023/01/23 01:37:59;;;;;;;22.48;8.88;;;4.10;92.00;;;;;;5095266;28;20043;-74
2023/01/23 01:40:28;;;;;;;23.05;8.55;;;4.00;92.10;;;;;;5095247;28;20073;-74
2023/01/23 01:42:57;;;;;;;18.02;8.02;;;4.00;92.10;;;;;;5095222;28;20084;-74
2023/01/23 01:46:00;;;;;;;20.90;8.63;;;3.90;92.30;;;;;;5076714;28;20021;-74
2023/01/23 01:48:35;;;;;;;23.85;8.35;;;4.00;92.20;;;;;;5095071;28;20082;-73
2023/01/23 01:51:06;;;;;;;20.17;8.75;;;4.00;92.30;;;;;;5077340;28;20024;-74
2023/01/23 01:53:33;;;;;;;21.40;8.15;;;3.90;92.50;;;;;;5077290;28;20027;-74
2023/01/23 01:56:00;;;;;;;24.83;8.50;;;3.90;92.50;;;;;;5094913;28;20025;-73
2023/01/23 01:58:27;;;;;;;18.63;8.25;;;3.90;92.50;;;;;;5094893;28;20044;-73
2023/01/23 02:00:53;;;;;;;22.35;8.63;;;3.90;92.50;;;;;;5077113;28;20021;-74
2023/01/23 02:03:19;;;;;;;23.05;8.55;;;4.00;92.50;;;;;;5077041;28;20028;-74
2023/01/23 02:05:48;;;;;;;20.75;7.93;;;4.00;92.50;;;;;;5060476;28;20028;-74
2023/01/23 02:08:36;;;;;;;19.95;8.43;;;4.00;92.50;;;;;;5094611;28;20482;-74
2023/01/23 02:11:03;;;;;;;26.27;9.32;;;4.00;92.50;;;;;;5094649;28;20021;-73
2023/01/23 02:13:34;;;;;;;20.90;8.23;;;4.00;92.40;;;;;;5076841;28;20024;-74
2023/01/23 02:16:04;;;;;;;23.40;9.25;;;3.90;92.70;;;;;;5094490;28;20028;-73
2023/01/23 02:18:31;;;;;;;20.75;7.70;;;3.90;92.60;;;;;;5094490;28;20084;-73
2023/01/23 02:21:00;;;;;;;18.48;8.05;;;4.00;92.50;;;;;;5094364;28;20033;-73
2023/01/23 02:23:48;;;;;;;18.45;8.45;;;4.00;92.50;;;;;;5094441;28;20092;-74
2023/01/23 02:26:31;;;;;;;22.55;9.35;;;4.00;92.50;;;;;;5076485;28;20032;-73
2023/01/23 02:28:58;;;;;;;22.05;8.38;;;4.00;92.50;;;;;;5076476;28;20036;-74
2023/01/23 02:31:25;;;;;;;23.17;8.77;;;4.00;92.60;;;;;;5076754;28;20024;-74
2023/01/23 02:33:56;;;;;;;17.65;8.73;;;4.00;92.70;;;;;;5094171;28;20055;-73
2023/01/23 02:36:25;;;;;;;20.80;8.52;;;4.00;92.70;;;;;;5076393;28;20024;-73
2023/01/23 02:39:06;;;;;;;21.20;8.68;;;4.00;92.70;;;;;;5094079;28;20021;-74
2023/01/23 02:41:36;;;;;;;24.77;8.93;;;4.00;92.60;;;;;;5076344;28;20017;-74
2023/01/23 02:44:27;;;;;;;23.05;8.85;;;4.00;92.70;;;;;;5076324;28;20013;-74
2023/01/23 02:47:00;;;;;;;23.27;8.55;;;4.00;92.70;;;;;;5076264;28;20093;-74
2023/01/23 02:49:25;;;;;;;26.80;8.80;;;4.00;92.70;;;;;;5093893;28;20024;-73
2023/01/23 02:51:52;;;;;;;19.75;8.82;;;4.00;92.70;;;;;;5059634;28;20078;-74
2023/01/23 02:54:19;;;;;;;23.48;8.70;;;4.00;92.70;;;;;;5059566;28;20051;-73
2023/01/23 02:56:45;;;;;;;18.80;8.27;;;4.00;92.70;;;;;;5075994;28;20028;-74
2023/01/23 03:01:56;;;;;;;22.40;8.80;;;4.10;92.70;;;;;;5093939;28;20058;-73
2023/01/23 03:04:22;;;;;;;19.73;8.10;;;4.10;92.70;;;;;;5075961;28;20044;-73
2023/01/23 03:06:47;;;;;;;26.02;9.02;;;4.00;92.70;;;;;;5059315;28;20389;-74
2023/01/23 03:09:15;;;;;;;22.63;8.57;;;4.10;92.70;;;;;;5075986;28;20047;-73
2023/01/23 03:11:43;;;;;;;21.88;8.23;;;4.10;92.70;;;;;;5059381;28;20024;-73
2023/01/23 03:14:11;;;;;;;25.08;8.25;;;4.10;92.60;;;;;;5075861;28;20025;-73
2023/01/23 03:16:37;;;;;;;21.80;8.80;;;4.10;92.70;;;;;;5075700;28;20021;-74
2023/01/23 03:19:07;;;;;;;25.40;8.95;;;4.10;92.70;;;;;;5075898;28;20093;-73
2023/01/23 03:21:33;;;;;;;25.50;8.52;;;4.10;92.70;;;;;;5075753;28;20103;-74
2023/01/23 03:23:59;;;;;;;20.42;8.13;;;4.10;92.70;;;;;;5076056;28;20024;-74
2023/01/23 03:26:24;;;;;;;20.38;8.52;;;4.10;92.70;;;;;;5075693;28;20036;-73
2023/01/23 03:31:35;;;;;;;21.83;8.52;;;4.20;92.70;;;;;;5078525;28;20062;-73
2023/01/23 03:34:00;;;;;;;24.63;9.55;;;4.20;92.70;;;;;;5075603;28;20024;-74
2023/01/23 03:36:26;;;;;;;22.27;8.55;;;4.20;92.70;;;;;;5058883;28;20033;-74
2023/01/23 03:41:38;;;;;;;26.60;8.43;;;4.20;92.70;;;;;;5078427;28;20158;-74
2023/01/23 03:44:03;;;;;;;26.67;9.18;;;4.20;92.70;;;;;;5059562;28;20017;-74
2023/01/23 03:46:29;;;;;;;24.40;8.88;;;4.20;92.60;;;;;;5075531;28;20037;-74
2023/01/23 03:48:54;;;;;;;25.30;8.80;;;4.20;92.60;;;;;;5058787;28;20029;-74
2023/01/23 03:51:20;;;;;;;26.33;9.30;;;4.20;92.70;;;;;;5093084;28;20058;-74
2023/01/23 03:53:46;;;;;;;23.73;8.73;;;4.20;92.70;;;;;;5042277;28;20039;-74
2023/01/23 03:56:11;;;;;;;24.17;8.55;;;4.20;92.70;;;;;;5075326;28;20043;-74
2023/01/23 03:58:37;;;;;;;26.75;9.07;;;4.20;92.70;;;;;;5075444;28;20051;-74
2023/01/23 04:01:08;;;;;;;24.30;8.88;;;4.20;92.70;;;;;;5058817;28;20029;-74
2023/01/23 04:03:34;;;;;;;23.45;8.90;;;4.20;92.70;;;;;;5092979;28;20027;-74
2023/01/23 04:06:00;;;;;;;21.23;8.68;;;4.20;92.70;;;;;;5093126;28;20025;-74
2023/01/23 04:08:25;;;;;;;28.63;9.13;;;4.20;92.70;;;;;;5094897;28;20043;-73
2023/01/23 04:10:59;;;;;;;22.45;9.02;;;4.20;92.70;;;;;;5079146;28;20032;-74
2023/01/23 04:13:24;;;;;;;26.77;8.55;;;4.20;92.70;;;;;;5096958;28;20033;-74
2023/01/23 04:15:50;;;;;;;28.05;9.30;;;4.20;92.60;;;;;;5062324;28;20032;-74
2023/01/23 04:18:15;;;;;;;24.73;8.45;;;4.20;92.60;;;;;;5045894;28;20040;-74
2023/01/23 04:20:41;;;;;;;22.55;8.88;;;4.30;92.60;;;;;;5096764;28;20036;-74
2023/01/23 04:23:07;;;;;;;22.08;8.93;;;4.20;92.60;;;;;;5096696;28;20023;-74
2023/01/23 04:25:32;;;;;;;23.42;8.80;;;4.20;92.60;;;;;;5062258;28;20090;-74
2023/01/23 04:27:58;;;;;;;28.65;9.70;;;4.20;92.60;;;;;;5096557;28;20063;-73
2023/01/23 04:30:24;;;;;;;26.05;9.32;;;4.20;92.60;;;;;;5078779;28;20040;-74
2023/01/23 04:32:49;;;;;;;25.50;9.65;;;4.20;92.60;;;;;;5078872;28;20511;-73
2023/01/23 04:35:15;;;;;;;23.02;9.48;;;4.20;92.70;;;;;;5061957;28;20036;-74
2023/01/23 04:37:40;;;;;;;21.65;8.93;;;4.20;92.60;;;;;;5078751;28;20036;-74
2023/01/23 04:40:08;;;;;;;21.23;8.57;;;4.20;92.70;;;;;;5096385;28;20093;-74
2023/01/23 04:42:34;;;;;;;22.92;8.15;;;4.20;92.70;;;;;;5096284;28;20032;-74
2023/01/23 04:44:59;;;;;;;24.27;9.63;;;4.20;92.80;;;;;;5062081;28;20367;-74
2023/01/23 04:47:25;;;;;;;25.63;9.30;;;4.10;92.90;;;;;;5078549;28;20104;-74
2023/01/23 04:49:51;;;;;;;26.17;9.93;;;4.10;92.90;;;;;;5045342;28;20031;-74
2023/01/23 04:52:16;;;;;;;24.90;9.20;;;4.10;92.90;;;;;;5078460;28;20032;-74
2023/01/23 04:54:42;;;;;;;22.35;8.95;;;4.10;93.00;;;;;;5061753;28;20032;-74
2023/01/23 04:57:08;;;;;;;24.13;9.10;;;4.10;92.90;;;;;;5061614;28;20036;-74
2023/01/23 04:59:33;;;;;;;25.38;10.13;;;4.10;92.90;;;;;;5078596;28;20040;-74
2023/01/23 05:02:01;;;;;;;23.30;9.57;;;4.20;92.90;;;;;;5095946;28;20044;-74
2023/01/23 05:04:27;;;;;;;28.05;9.60;;;4.20;92.90;;;;;;5045619;28;20017;-74
2023/01/23 05:06:52;;;;;;;27.80;9.35;;;4.20;92.90;;;;;;5078162;28;20028;-74
2023/01/23 05:09:18;;;;;;;24.92;9.40;;;4.20;92.90;;;;;;5095768;28;20024;-74
2023/01/23 05:11:44;;;;;;;21.38;9.35;;;4.10;93.00;;;;;;5095786;28;20036;-74
2023/01/23 05:14:10;;;;;;;24.55;9.20;;;4.20;93.00;;;;;;5078049;28;20032;-74
2023/01/23 05:16:35;;;;;;;22.08;9.25;;;4.10;93.10;;;;;;5078034;28;20031;-74
2023/01/23 05:19:01;;;;;;;26.25;10.18;;;4.10;93.10;;;;;;5077155;28;20029;-74
2023/01/23 05:21:26;;;;;;;25.23;9.48;;;4.10;93.10;;;;;;5077428;28;20055;-74
2023/01/23 05:23:52;;;;;;;21.17;9.00;;;4.10;93.20;;;;;;5061359;28;20033;-74
2023/01/23 05:26:17;;;;;;;24.33;8.23;;;4.10;93.60;;;;;;5061319;28;20021;-74
2023/01/23 05:28:43;;;;;;;25.55;9.02;;;4.10;93.20;;;;;;5061120;28;20509;-74
2023/01/23 05:31:09;;;;;;;22.85;9.23;;;4.10;93.10;;;;;;5095515;28;20028;-74
2023/01/23 05:33:34;;;;;;;25.20;9.35;;;4.10;93.20;;;;;;5095513;28;20489;-74
2023/01/23 05:36:00;;;;;;;20.88;9.00;;;4.10;93.10;;;;;;5077756;28;20051;-74
2023/01/23 05:38:26;;;;;;;29.25;9.48;;;4.10;93.10;;;;;;5095295;28;20024;-74
2023/01/23 05:40:52;;;;;;;21.13;8.27;;;4.10;93.20;;;;;;5095243;28;20024;-74
2023/01/23 05:43:18;;;;;;;23.70;9.23;;;4.10;93.20;;;;;;5077512;28;20024;-74
2023/01/23 05:45:44;;;;;;;22.75;8.65;;;4.10;93.20;;;;;;5077448;28;20025;-74
2023/01/23 05:48:09;;;;;;;28.58;10.07;;;4.10;93.30;;;;;;5095116;28;20064;-74
2023/01/23 05:50:35;;;;;;;23.08;8.82;;;4.10;93.30;;;;;;5077446;28;20024;-74
2023/01/23 05:53:00;;;;;;;21.58;9.20;;;4.10;93.20;;;;;;5077418;28;20413;-74
2023/01/23 05:55:26;;;;;;;26.10;9.38;;;4.10;93.20;;;;;;5060704;28;20028;-74
2023/01/23 05:57:52;;;;;;;22.13;9.05;;;4.10;93.30;;;;;;5077239;28;20040;-74
2023/01/23 06:00:18;;;;;;;24.48;9.05;;;4.20;93.60;;;;;;5077385;28;20029;-74
2023/01/23 06:02:43;;;;;;;25.35;9.07;;;4.10;93.30;;;;;;5094811;28;20035;-74
2023/01/23 06:05:09;;;;;;;24.85;9.07;;;4.20;93.30;;;;;;5077114;28;20028;-74
2023/01/23 06:07:36;;;;;;;24.20;8.70;;;4.20;93.20;;;;;;5077006;28;20055;-74
2023/01/23 06:10:02;;;;;;;25.20;9.50;;;4.20;93.20;;;;;;5060414;28;20025;-74
2023/01/23 06:12:28;;;;;;;23.98;9.38;;;4.20;93.20;;;;;;5094629;28;20099;-74
2023/01/23 06:14:53;;;;;;;21.55;8.25;;;4.20;93.20;;;;;;5060036;28;20566;-74
2023/01/23 06:17:19;;;;;;;26.35;9.38;;;4.20;93.30;;;;;;5060133;28;20047;-74
2023/01/23 06:19:44;;;;;;;28.33;9.35;;;4.20;93.30;;;;;;5094468;28;20031;-74
2023/01/23 06:22:10;;;;;;;23.75;9.52;;;4.20;93.20;;;;;;5076908;28;20077;-73
2023/01/23 06:24:36;;;;;;;23.67;8.52;;;4.20;93.30;;;;;;5060025;28;20024;-74
2023/01/23 06:27:03;;;;;;;20.30;8.70;;;4.20;93.20;;;;;;5076710;28;20043;-74
2023/01/23 06:29:28;;;;;;;24.25;9.15;;;4.20;93.20;;;;;;5094072;28;20048;-73
2023/01/23 06:31:54;;;;;;;23.85;8.55;;;4.20;93.20;;;;;;5093945;28;20025;-74
2023/01/23 06:34:19;;;;;;;21.55;8.93;;;4.20;93.20;;;;;;5076639;28;20033;-73
2023/01/23 06:36:46;;;;;;;26.63;9.15;;;4.20;93.20;;;;;;5076433;28;20108;-74
2023/01/23 06:39:14;;;;;;;20.85;8.32;;;4.20;93.30;;;;;;5094069;28;20067;-73
2023/01/23 06:41:40;;;;;;;20.50;8.10;;;4.20;93.20;;;;;;5094066;28;20036;-73
2023/01/23 06:44:06;;;;;;;20.70;9.15;;;4.30;93.20;;;;;;5059686;28;20024;-74
2023/01/23 06:46:32;;;;;;;22.42;9.00;;;4.20;93.20;;;;;;5076529;28;20058;-73
2023/01/23 06:48:58;;;;;;;18.58;8.10;;;4.30;93.20;;;;;;5093931;28;20028;-74
2023/01/23 06:51:24;;;;;;;21.88;8.25;;;4.20;93.20;;;;;;5093877;28;20068;-74
2023/01/23 06:53:49;;;;;;;24.33;9.43;;;4.30;93.20;;;;;;5093811;28;20025;-73
2023/01/23 06:56:15;;;;;;;23.35;9.30;;;4.20;93.20;;;;;;5076069;28;20116;-73
2023/01/23 06:58:44;;;;;;;21.70;8.68;;;4.20;93.30;;;;;;5076067;28;20070;-74
2023/01/23 07:01:14;;;;;;;22.33;8.25;;;4.20;93.20;;;;;;5076023;28;20020;-74
2023/01/23 07:03:41;;;;;;;25.52;9.73;;;4.20;93.20;;;;;;5076007;28;20017;-74
2023/01/23 07:06:08;;;;;;;17.75;7.70;;;4.20;93.30;;;;;;5093631;28;20143;-74
2023/01/23 07:08:34;;;;;;;23.05;9.13;;;4.20;93.20;;;;;;5093567;28;20028;-74
2023/01/23 07:11:01;;;;;;;23.40;9.60;;;4.20;93.30;;;;;;5093613;28;20024;-74
2023/01/23 07:13:27;;;;;;;23.15;8.73;;;4.20;93.30;;;;;;5093564;28;20028;-74
2023/01/23 07:15:53;;;;;;;22.25;9.38;;;4.20;93.30;;;;;;5093420;28;20028;-74
2023/01/23 07:18:18;;;;;;;23.77;9.30;;;4.20;93.40;;;;;;5059031;28;20050;-74
2023/01/23 07:20:45;;;;;;;21.30;9.02;;;4.20;93.40;;;;;;5093471;28;20034;-74
2023/01/23 07:23:11;;;;;;;19.90;8.65;;;4.20;93.50;;;;;;5093422;28;20017;-74
2023/01/23 07:25:37;;;;;;;18.85;8.32;;;4.20;93.40;;;;;;5059234;28;20111;-74
2023/01/23 07:28:04;;;;;;;20.10;8.25;;;4.20;93.40;;;;;;5093412;28;20024;-74
2023/01/23 07:30:30;;;;;;;19.88;8.23;;;4.20;93.40;;;;;;5055963;28;20053;-74
2023/01/23 07:32:57;;;;;;;21.92;9.02;;;4.30;93.30;;;;;;5052225;28;20034;-74
2023/01/23 07:35:22;;;;;;;24.17;9.48;;;4.30;93.30;;;;;;5035858;28;20049;-74
2023/01/23 07:37:48;;;;;;;22.92;8.90;;;4.30;93.30;;;;;;5053226;28;20049;-74
2023/01/23 07:40:13;;;;;;;21.13;8.57;;;4.30;93.20;;;;;;5052210;28;20033;-74
2023/01/23 07:42:40;;;;;;;19.83;8.88;;;4.30;93.20;;;;;;5052491;28;20033;-74
2023/01/23 07:45:07;;;;;;;22.88;8.70;;;4.30;93.20;;;;;;5052221;28;20017;-74
2023/01/23 07:47:33;;;;;;;21.08;9.27;;;4.30;93.20;;;;;;5053117;28;20022;-74
2023/01/23 07:49:59;;;;;;;22.38;9.38;;;4.30;93.30;;;;;;5053095;28;20017;-74
2023/01/23 07:52:25;;;;;;;23.40;9.23;;;4.30;93.30;;;;;;5052132;28;20113;-74
2023/01/23 07:54:50;;;;;;;21.15;8.63;;;4.30;93.30;;;;;;5051972;28;20529;-74
2023/01/23 07:57:16;;;;;;;21.50;8.38;;;4.30;93.30;;;;;;5052023;28;20032;-74
2023/01/23 07:59:41;;;;;;;23.48;9.90;;;4.30;93.30;;;;;;5052094;28;20494;-74
2023/01/23 08:02:09;;;;;;;22.02;9.00;;;4.30;93.20;;;;;;5052029;28;20040;-74
2023/01/23 08:04:35;;;;;;;22.58;8.70;;;4.30;93.20;;;;;;5051899;28;20159;-74
2023/01/23 08:07:01;;;;;;;25.25;8.93;;;4.30;93.30;;;;;;5053014;28;20033;-74
2023/01/23 08:09:27;;;;;;;22.33;8.10;;;4.30;93.40;;;;;;5035324;28;20033;-74
2023/01/23 08:11:53;;;;;;;24.35;9.20;;;4.30;93.40;;;;;;5053010;28;20040;-74
2023/01/23 08:14:19;;;;;;;21.88;8.13;;;4.30;93.40;;;;;;5052962;28;20065;-75
2023/01/23 08:16:48;;;;;;;20.15;8.90;;;4.30;93.40;;;;;;5052900;28;20030;-74
2023/01/23 08:19:14;;;;;;;19.50;8.93;;;4.40;93.40;;;;;;5052973;28;20025;-74
2023/01/23 08:21:40;;;;;;;22.00;8.75;;;4.30;93.40;;;;;;5051751;28;20028;-74
2023/01/23 08:24:06;;;;;;;22.17;8.73;;;4.30;93.50;;;;;;5035276;28;20033;-74
2023/01/23 08:26:32;;;;;;;24.38;8.35;;;4.30;93.50;;;;;;5051793;28;20056;-75
2023/01/23 08:28:57;;;;;;;19.35;8.55;;;4.40;93.40;;;;;;5051602;28;20046;-75
2023/01/23 08:31:23;;;;;;;19.08;8.48;;;4.40;93.50;;;;;;5051809;28;20037;-74
2023/01/23 08:33:49;;;;;;;19.42;8.43;;;4.40;93.50;;;;;;5051624;28;20044;-74
2023/01/23 08:36:14;;;;;;;19.77;8.25;;;4.40;93.50;;;;;;5051556;28;20029;-74
2023/01/23 08:38:40;;;;;;;19.60;8.65;;;4.40;93.50;;;;;;5051699;28;20040;-74
2023/01/23 08:41:06;;;;;;;24.80;10.10;;;4.30;93.60;;;;;;5052619;28;20028;-74
2023/01/23 08:43:32;;;;;;;19.13;8.57;;;4.40;93.60;;;;;;5035049;28;20081;-74
2023/01/23 08:45:58;;;;;;;21.08;8.63;;;4.40;93.60;;;;;;5052562;28;20029;-74
2023/01/23 08:48:25;;;;;;;21.38;8.63;;;4.40;93.60;;;;;;5051528;28;20036;-74
2023/01/23 08:50:58;;;;;;;24.17;9.18;;;4.40;93.70;;;;;;5052575;28;20398;-74
2023/01/23 08:53:24;;;;;;;21.45;8.35;;;4.40;93.70;;;;;;5051870;28;20029;-74
2023/01/23 08:55:50;;;;;;;23.10;10.02;;;4.40;93.60;;;;;;5038454;28;20030;-74
2023/01/23 08:58:15;;;;;;;23.00;8.63;;;4.50;93.70;;;;;;5038567;28;20040;-74
2023/01/23 09:00:41;;;;;;;21.35;8.15;;;4.50;93.70;;;;;;5055155;28;20467;-74
2023/01/23 09:03:08;;;;;;;23.73;8.30;;;4.50;93.70;;;;;;5055138;28;20030;-74
2023/01/23 09:05:35;;;;;;;22.67;8.80;;;4.50;93.80;;;;;;5054864;28;20025;-74
2023/01/23 09:08:00;;;;;;;17.80;8.63;;;4.40;93.80;;;;;;5055918;28;20026;-74
2023/01/23 09:10:26;;;;;;;24.08;8.55;;;4.50;93.80;;;;;;5054953;28;20080;-74
2023/01/23 09:12:56;;;;;;;25.10;8.88;;;4.50;93.80;;;;;;5054908;28;20025;-74
2023/01/23 09:15:23;;;;;;;20.80;7.43;;;4.60;93.60;;;;;;5055638;28;20033;-74
2023/01/23 09:17:49;;;;;;;18.05;8.23;;;4.60;93.60;;;;;;5038159;28;20025;-74
2023/01/23 09:20:14;;;;;;;21.77;7.90;;;4.60;93.60;;;;;;5055649;28;20025;-74
2023/01/23 09:22:40;;;;;;;25.40;9.10;;;4.60;93.60;;;;;;5054697;28;20025;-74
2023/01/23 09:25:07;;;;;;;20.77;8.23;;;4.70;93.60;;;;;;5038077;28;20028;-74
2023/01/23 09:27:32;;;;;;;22.30;8.52;;;4.60;93.60;;;;;;5054586;28;20560;-74
2023/01/23 09:29:58;;;;;;;19.42;7.82;;;4.70;93.50;;;;;;5056217;28;20045;-74
2023/01/23 09:32:24;;;;;;;20.67;9.05;;;4.70;93.50;;;;;;5054383;28;20041;-74
2023/01/23 09:34:49;;;;;;;21.58;7.88;;;4.70;93.50;;;;;;5054344;28;20021;-74
2023/01/23 09:37:16;;;;;;;19.13;7.70;;;4.70;93.50;;;;;;5037677;28;20034;-74
2023/01/23 09:39:42;;;;;;;21.67;7.70;;;4.80;93.50;;;;;;5054219;28;20025;-74
2023/01/23 09:42:18;;;;;;;20.25;8.57;;;4.80;93.50;;;;;;5054435;28;20022;-74
2023/01/23 09:44:47;;;;;;;18.83;8.13;;;4.80;93.50;;;;;;5055240;28;20089;-74
2023/01/23 09:47:27;;;;;;;19.55;7.82;;;4.70;93.60;;;;;;5054114;28;20067;-74
2023/01/23 09:50:07;;;;;;;19.08;8.00;;;4.80;93.50;;;;;;5054189;28;20033;-74
2023/01/23 09:52:35;;;;;;;19.00;7.72;;;4.80;93.50;;;;;;5055108;28;20025;-74
2023/01/23 09:55:14;;;;;;;19.63;8.35;;;4.80;93.60;;;;;;5054941;28;20025;-74
2023/01/23 09:57:54;;;;;;;18.38;7.43;;;4.80;93.50;;;;;;5054966;28;20028;-74
2023/01/23 10:00:30;;;;;;;18.63;7.40;;;4.80;93.50;;;;;;5053971;28;20032;-74
2023/01/23 10:02:57;;;;;;;20.40;7.53;;;4.80;93.60;;;;;;5054883;28;20021;-74
2023/01/23 10:05:38;;;;;;;20.92;8.15;;;4.90;93.50;;;;;;5053293;28;20032;-74
2023/01/23 10:08:24;;;;;;;16.83;7.85;;;4.90;93.50;;;;;;5054723;28;20025;-74
2023/01/23 10:10:56;;;;;;;19.08;7.38;;;4.90;93.50;;;;;;5053651;28;20029;-74
2023/01/23 10:13:42;;;;;;;16.73;7.03;;;4.90;93.40;;;;;;5053697;28;20030;-74
2023/01/23 10:16:26;;;;;;;17.20;7.38;;;4.90;93.40;;;;;;5054571;28;20033;-74
2023/01/23 10:18:58;;;;;;;19.00;7.45;;;4.90;93.30;;;;;;5054557;28;20049;-74
2023/01/23 10:21:42;;;;;;;14.35;6.95;;;5.00;93.30;;;;;;5053447;28;20056;-74
2023/01/23 10:24:31;;;;;;;17.08;8.05;;;5.00;93.20;;;;;;5054558;28;20028;-74
2023/01/23 10:27:07;;;;;;;18.58;6.82;;;4.90;93.20;;;;;;5054457;28;20049;-74
2023/01/23 10:29:43;;;;;;;20.42;7.82;;;4.90;93.10;;;;;;5066513;28;20420;-74
2023/01/23 10:32:26;;;;;;;15.98;7.13;;;5.00;93.10;;;;;;5094094;28;20090;-74
2023/01/23 10:35:06;;;;;;;19.27;7.25;;;5.00;93.10;;;;;;5094250;28;20485;-74
2023/01/23 10:37:55;;;;;;;20.02;7.55;;;5.00;93.10;;;;;;5076614;28;20055;-74
2023/01/23 10:43:18;;;;;;;15.10;6.60;;;5.10;93.10;;;;;;5094330;28;20023;-74
2023/01/23 10:45:46;;;;;;;18.70;7.07;;;5.10;93.10;;;;;;5094092;28;20054;-74
2023/01/23 10:48:31;;;;;;;18.65;7.15;;;5.10;93.10;;;;;;5059676;28;20029;-74
2023/01/23 10:50:57;;;;;;;14.95;6.35;;;5.10;92.80;;;;;;5076240;28;20054;-74
2023/01/23 10:53:24;;;;;;;18.83;7.65;;;5.00;92.80;;;;;;5076195;28;20025;-74
2023/01/23 10:55:52;;;;;;;18.73;7.55;;;5.10;92.80;;;;;;5093766;28;20078;-74
2023/01/23 10:58:35;;;;;;;16.25;7.07;;;5.10;92.80;;;;;;5076518;28;20067;-74
2023/01/23 11:01:03;;;;;;;17.23;7.57;;;5.10;92.80;;;;;;5076116;28;20028;-74
2023/01/23 11:03:28;;;;;;;17.02;7.18;;;5.10;92.90;;;;;;5093692;28;20023;-74
2023/01/23 11:06:08;;;;;;;16.55;7.05;;;5.20;92.80;;;;;;5075998;28;20070;-74
2023/01/23 11:08:36;;;;;;;16.02;6.82;;;5.10;92.60;;;;;;5059314;28;20025;-74
2023/01/23 11:11:14;;;;;;;17.52;7.15;;;5.20;92.70;;;;;;5093654;28;20029;-74
2023/01/23 11:13:45;;;;;;;14.38;6.75;;;5.20;92.70;;;;;;5093558;28;20055;-74
2023/01/23 11:16:20;;;;;;;17.58;6.45;;;5.20;92.60;;;;;;5093495;28;20028;-74
2023/01/23 11:19:08;;;;;;;14.52;6.25;;;5.20;92.70;;;;;;5092665;28;20025;-74
2023/01/23 11:21:36;;;;;;;16.83;7.10;;;5.20;92.40;;;;;;5093519;28;20031;-74
2023/01/23 11:24:24;;;;;;;17.58;6.85;;;5.20;92.40;;;;;;5075674;28;20021;-74
2023/01/23 11:27:16;;;;;;;17.88;7.03;;;5.20;92.40;;;;;;5075609;28;20050;-74
2023/01/23 11:30:12;;;;;;;17.13;6.20;;;5.30;92.10;;;;;;5093444;28;20025;-74
2023/01/23 11:32:57;;;;;;;17.00;6.35;;;5.20;92.10;;;;;;5075616;28;20060;-74
2023/01/23 11:35:41;;;;;;;18.15;6.53;;;5.20;92.10;;;;;;5075561;28;20087;-74
2023/01/23 11:38:13;;;;;;;18.80;7.35;;;5.20;92.10;;;;;;5075656;28;20092;-74
2023/01/23 11:40:39;;;;;;;;;;;5.30;92.20;;;;;;5093772;28;20017;-74
2023/01/23 11:43:14;;;;;;;12.55;6.22;;;5.20;92.10;;;;;;5058884;28;19915;-74
2023/01/23 11:46:05;;;;;;;17.60;6.65;;;5.20;92.30;;;;;;5093231;28;20087;-74
2023/01/23 11:48:31;;;;;;;15.20;6.65;;;5.20;92.40;;;;;;5093264;28;20032;-74
2023/01/23 11:51:11;;;;;;;16.70;6.70;;;5.20;92.30;;;;;;5093178;28;20033;-74
2023/01/23 11:54:16;;;;;;;17.02;6.82;;;5.20;92.20;;;;;;5093178;28;20032;-74
2023/01/23 11:57:12;;;;;;;17.88;7.70;;;5.20;92.20;;;;;;5075413;28;20029;-74
2023/01/23 11:59:47;;;;;;;18.42;6.18;;;5.20;92.10;;;;;;5093140;28;20028;-74
2023/01/23 12:02:29;;;;;;;14.60;6.47;;;5.20;92.30;;;;;;5075350;28;20052;-74
2023/01/23 12:05:14;;;;;;;15.93;7.50;;;5.20;92.20;;;;;;5093123;28;20025;-74
2023/01/23 12:07:58;;;;;;;16.13;6.38;;;5.20;92.10;;;;;;5092974;28;20047;-74
2023/01/23 12:10:41;;;;;;;18.98;7.18;;;5.20;92.50;;;;;;5093184;28;20035;-74
2023/01/23 12:13:13;;;;;;;15.95;6.53;;;5.20;92.00;;;;;;5092995;28;20052;-75
2023/01/23 12:15:42;;;;;;;19.80;7.30;;;5.30;92.00;;;;;;5075194;28;20043;-74
2023/01/23 12:18:38;;;;;;;16.10;7.65;;;5.30;92.00;;;;;;5093022;28;20047;-75
2023/01/23 12:21:16;;;;;;;17.42;7.00;;;5.30;92.00;;;;;;5075155;28;20397;-75
2023/01/23 12:24:00;;;;;;;15.57;7.25;;;5.30;91.80;;;;;;5075120;28;20021;-74
2023/01/23 12:26:28;;;;;;;16.83;7.10;;;5.30;91.90;;;;;;5075079;28;20036;-75
2023/01/23 12:29:37;;;;;;;15.93;6.68;;;5.30;91.90;;;;;;5059455;28;20027;-74
2023/01/23 12:32:32;;;;;;;19.50;6.90;;;5.30;91.90;;;;;;5096420;28;20130;-74
2023/01/23 12:35:36;;;;;;;18.10;6.68;;;5.40;91.90;;;;;;5078972;28;20020;-74
2023/01/23 12:38:30;;;;;;;15.73;6.68;;;5.40;91.90;;;;;;5079091;28;20025;-75
2023/01/23 12:41:15;;;;;;;16.10;7.28;;;5.40;91.90;;;;;;5096461;28;20587;-74
2023/01/23 12:44:12;;;;;;;17.90;7.35;;;5.40;91.80;;;;;;5078728;28;20025;-74
2023/01/23 12:46:50;;;;;;;17.17;6.88;;;5.40;91.90;;;;;;5059010;28;20036;-75
2023/01/23 12:49:37;;;;;;;17.33;6.97;;;5.40;91.90;;;;;;5078854;28;20032;-74
2023/01/23 12:52:10;;;;;;;19.52;7.75;;;5.50;92.00;;;;;;5096409;28;20036;-74
2023/01/23 12:54:41;;;;;;;17.55;7.60;;;5.50;92.00;;;;;;5078457;28;20100;-74
2023/01/23 12:57:09;;;;;;;21.20;8.13;;;5.50;92.00;;;;;;5096101;28;20025;-74
2023/01/23 13:00:04;;;;;;;21.05;7.82;;;5.50;91.90;;;;;;5078540;28;20119;-74
2023/01/23 13:02:57;;;;;;;17.90;7.10;;;5.50;91.80;;;;;;5095281;28;20047;-74
2023/01/23 13:05:42;;;;;;;17.05;7.75;;;5.50;91.70;;;;;;5096024;28;20051;-74
2023/01/23 13:08:32;;;;;;;19.73;7.20;;;5.50;91.50;;;;;;5078193;28;20016;-74
2023/01/23 13:11:43;;;;;;;19.35;7.03;;;5.40;91.60;;;;;;5078210;28;20028;-75
2023/01/23 13:14:21;;;;;;;17.60;7.07;;;5.40;91.60;;;;;;5096051;28;20076;-74